createdAt,value
2022-07-25T00:01:51.237Z,999.90
2022-07-25T00:04:18.825Z,999.90
2022-07-25T00:06:46.627Z,999.90
2022-07-25T00:09:14.335Z,999.90
2022-07-25T00:11:41.950Z,999.90
2022-07-25T00:14:09.602Z,999.90
2022-07-25T00:16:37.556Z,999.90
2022-07-25T00:19:04.786Z,999.90
2022-07-25T00:21:32.630Z,999.90
2022-07-25T00:23:59.924Z,999.90
2022-07-25T00:26:27.092Z,999.90
2022-07-25T00:28:54.480Z,999.90
2022-07-25T00:31:21.766Z,999.90
2022-07-25T00:33:49.002Z,999.90
2022-07-25T00:36:16.331Z,999.90
2022-07-25T00:38:43.525Z,999.90
2022-07-25T00:41:11.041Z,999.90
2022-07-25T00:43:38.286Z,999.90
2022-07-25T00:46:05.643Z,999.90
2022-07-25T00:48:35.975Z,999.90
2022-07-25T00:51:03.273Z,999.90
2022-07-25T00:53:30.520Z,999.90
2022-07-25T00:55:58.165Z,999.90
2022-07-25T00:58:25.451Z,999.90
2022-07-25T01:00:53.062Z,999.90
2022-07-25T01:03:20.395Z,999.90
2022-07-25T01:05:53.096Z,999.90
2022-07-25T01:08:22.234Z,999.90
2022-07-25T01:10:49.682Z,999.90
2022-07-25T01:13:16.892Z,999.90
2022-07-25T01:15:44.126Z,999.90
2022-07-25T01:18:11.425Z,999.90
2022-07-25T01:20:39.073Z,999.90
2022-07-25T01:23:06.248Z,999.90
2022-07-25T01:25:33.518Z,999.90
2022-07-25T01:28:00.748Z,999.90
2022-07-25T01:30:28.069Z,999.90
2022-07-25T01:32:55.323Z,999.90
2022-07-25T01:35:22.800Z,999.90
2022-07-25T01:37:50.003Z,999.90
2022-07-25T01:40:17.294Z,999.90
2022-07-25T01:42:44.828Z,999.90
2022-07-25T01:45:12.860Z,999.90
2022-07-25T01:47:40.425Z,999.90
2022-07-25T01:50:08.466Z,999.90
2022-07-25T01:52:37.182Z,999.90
2022-07-25T01:55:04.702Z,999.90
2022-07-25T01:57:33.464Z,999.90
2022-07-25T02:00:06.596Z,999.90
2022-07-25T02:02:40.154Z,999.90
2022-07-25T02:05:09.059Z,999.90
2022-07-25T02:07:36.917Z,999.90
2022-07-25T02:10:05.521Z,999.90
2022-07-25T02:12:33.511Z,999.90
2022-07-25T02:15:00.960Z,999.90
2022-07-25T02:17:28.198Z,999.90
2022-07-25T02:19:55.435Z,999.90
2022-07-25T02:22:22.611Z,999.90
2022-07-25T02:24:50.926Z,999.90
2022-07-25T02:27:18.114Z,999.90
2022-07-25T02:29:45.323Z,999.90
2022-07-25T02:32:12.534Z,999.90
2022-07-25T02:34:39.699Z,999.90
2022-07-25T02:37:06.922Z,999.90
2022-07-25T02:39:34.159Z,999.90
2022-07-25T02:42:01.350Z,999.90
2022-07-25T02:44:28.526Z,999.90
2022-07-25T02:46:55.657Z,999.90
2022-07-25T02:49:22.845Z,999.90
2022-07-25T02:51:50.024Z,999.90
2022-07-25T02:54:17.208Z,999.90
2022-07-25T02:56:44.386Z,999.90
2022-07-25T02:59:11.545Z,999.90
2022-07-25T03:01:38.837Z,999.90
2022-07-25T03:04:06.403Z,999.90
2022-07-25T03:06:34.395Z,999.90
2022-07-25T03:09:02.445Z,999.90
2022-07-25T03:11:29.663Z,999.90
2022-07-25T03:13:57.800Z,999.90
2022-07-25T03:16:25.140Z,999.90
2022-07-25T03:18:52.842Z,999.90
2022-07-25T03:21:20.143Z,999.90
2022-07-25T03:23:52.264Z,999.90
2022-07-25T03:26:20.769Z,999.90
2022-07-25T03:28:47.921Z,999.90
2022-07-25T03:31:15.229Z,999.90
2022-07-25T03:33:42.514Z,999.90
2022-07-25T03:36:10.384Z,999.90
2022-07-25T03:38:37.680Z,999.90
2022-07-25T03:41:05.215Z,999.90
2022-07-25T03:43:32.468Z,999.90
2022-07-25T03:45:59.786Z,999.90
2022-07-25T03:48:27.261Z,999.90
2022-07-25T03:50:56.770Z,999.90
2022-07-25T03:53:24.328Z,999.90
2022-07-25T03:55:51.591Z,999.90
2022-07-25T03:58:18.865Z,999.90
2022-07-25T04:00:47.855Z,999.90
2022-07-25T04:03:15.206Z,999.90
2022-07-25T04:05:47.234Z,999.90
2022-07-25T04:08:15.060Z,999.90
2022-07-25T04:10:42.354Z,999.90
2022-07-25T04:13:09.658Z,999.90
2022-07-25T04:15:36.850Z,999.90
2022-07-25T04:18:05.410Z,999.90
2022-07-25T04:20:37.350Z,999.90
2022-07-25T04:23:04.571Z,999.90
2022-07-25T04:25:31.754Z,999.90
2022-07-25T04:27:58.909Z,999.90
2022-07-25T04:30:26.069Z,999.90
2022-07-25T04:32:53.367Z,999.90
2022-07-25T04:35:20.711Z,999.90
2022-07-25T04:37:48.145Z,999.90
2022-07-25T04:40:15.374Z,800.55
2022-07-25T04:42:42.595Z,846.55
2022-07-25T04:45:10.314Z,999.90
2022-07-25T04:47:37.481Z,772.08
2022-07-25T04:50:04.974Z,834.58
2022-07-25T04:52:32.187Z,669.65
2022-07-25T04:54:59.407Z,881.80
2022-07-25T04:57:26.601Z,999.90
2022-07-25T04:59:53.797Z,873.22
2022-07-25T05:02:21.027Z,667.67
2022-07-25T05:04:48.349Z,790.28
2022-07-25T05:07:19.744Z,729.47
2022-07-25T05:09:46.970Z,687.33
2022-07-25T05:12:14.298Z,721.45
2022-07-25T05:14:41.791Z,715.22
2022-07-25T05:17:08.974Z,870.58
2022-07-25T05:19:36.274Z,999.90
2022-07-25T05:22:04.486Z,999.90
2022-07-25T05:24:35.903Z,999.90
2022-07-25T05:27:04.268Z,999.90
2022-07-25T05:29:32.277Z,999.90
2022-07-25T05:31:59.522Z,999.90
2022-07-25T05:34:26.805Z,999.90
2022-07-25T05:36:54.053Z,929.42
2022-07-25T05:39:21.251Z,999.90
2022-07-25T05:41:48.422Z,999.90
2022-07-25T05:44:15.627Z,999.90
2022-07-25T05:46:42.879Z,999.90
2022-07-25T05:49:10.257Z,999.90
2022-07-25T05:51:37.817Z,999.90
2022-07-25T05:54:05.286Z,999.90
2022-07-25T05:56:32.727Z,999.90
2022-07-25T05:58:59.962Z,999.90
2022-07-25T06:01:27.207Z,999.90
2022-07-25T06:03:54.557Z,999.90
2022-07-25T06:06:21.756Z,999.90
2022-07-25T06:08:48.918Z,999.90
2022-07-25T06:11:16.135Z,999.90
2022-07-25T06:13:43.470Z,999.90
2022-07-25T06:16:11.072Z,999.90
2022-07-25T06:18:38.311Z,999.90
2022-07-25T06:21:06.549Z,999.90
2022-07-25T06:23:33.733Z,762.55
2022-07-25T06:26:00.902Z,728.47
2022-07-25T06:28:28.149Z,823.83
2022-07-25T06:30:55.513Z,637.78
2022-07-25T06:33:22.693Z,690.58
2022-07-25T06:35:49.881Z,999.90
2022-07-25T06:38:17.070Z,999.90
2022-07-25T06:40:44.458Z,999.90
2022-07-25T06:43:11.644Z,999.90
2022-07-25T06:45:38.876Z,823.83
2022-07-25T06:48:06.231Z,811.70
2022-07-25T06:50:33.430Z,829.30
2022-07-25T06:53:00.578Z,999.90
2022-07-25T06:55:27.748Z,999.90
2022-07-25T06:57:54.909Z,999.90
2022-07-25T07:00:22.206Z,999.90
2022-07-25T07:02:49.373Z,999.90
2022-07-25T07:05:16.723Z,840.70
2022-07-25T07:07:47.574Z,820.78
2022-07-25T07:10:16.582Z,854.55
2022-07-25T07:12:44.151Z,848.55
2022-07-25T07:15:12.268Z,911.00
2022-07-25T07:17:39.617Z,931.13
2022-07-25T07:20:08.054Z,903.67
2022-07-25T07:22:47.327Z,983.67
2022-07-25T07:25:16.594Z,929.85
2022-07-25T07:27:45.245Z,878.60
2022-07-25T07:30:15.087Z,903.15
2022-07-25T07:32:43.360Z,624.22
2022-07-25T07:35:12.177Z,999.90
2022-07-25T07:37:43.372Z,999.90
2022-07-25T07:40:17.215Z,999.90
2022-07-25T07:42:47.754Z,999.90
2022-07-25T07:45:17.889Z,999.90
2022-07-25T07:47:48.087Z,999.90
2022-07-25T07:50:18.345Z,999.90
2022-07-25T07:52:46.638Z,999.90
2022-07-25T07:55:33.665Z,999.90
2022-07-25T07:58:01.765Z,999.90
2022-07-25T08:00:34.902Z,999.90
2022-07-25T08:03:03.336Z,999.90
2022-07-25T08:05:33.591Z,999.90
2022-07-25T08:08:01.372Z,999.90
2022-07-25T08:10:30.965Z,999.90
2022-07-25T08:12:59.935Z,999.90
2022-07-25T08:15:27.369Z,999.90
2022-07-25T08:17:54.645Z,693.40
2022-07-25T08:20:38.059Z,999.90
2022-07-25T08:23:07.567Z,701.28
2022-07-25T08:25:35.375Z,999.90
2022-07-25T08:28:04.172Z,999.90
2022-07-25T08:30:31.403Z,874.28
2022-07-25T08:33:01.254Z,999.90
2022-07-25T08:35:29.434Z,999.90
2022-07-25T08:37:57.529Z,819.90
2022-07-25T08:40:26.975Z,551.85
2022-07-25T08:42:56.204Z,529.05
2022-07-25T08:45:24.353Z,752.97
2022-07-25T08:47:52.986Z,661.58
2022-07-25T08:50:23.572Z,544.53
2022-07-25T08:53:00.955Z,757.30
2022-07-25T08:55:39.486Z,782.08
2022-07-25T08:58:06.678Z,943.58
2022-07-25T09:00:33.860Z,811.08
2022-07-25T09:03:03.045Z,784.70
2022-07-25T09:05:31.995Z,753.53
2022-07-25T09:08:07.873Z,807.00
2022-07-25T09:10:36.786Z,649.42
2022-07-25T09:13:07.847Z,527.17
2022-07-25T09:15:41.449Z,571.53
2022-07-25T09:18:13.188Z,640.88
2022-07-25T09:20:44.425Z,684.25
2022-07-25T09:23:14.224Z,481.67
2022-07-25T09:25:42.225Z,499.13
2022-07-25T09:28:16.300Z,678.55
2022-07-25T09:30:56.524Z,759.58
2022-07-25T09:33:26.996Z,766.75
2022-07-25T09:35:55.846Z,721.75
2022-07-25T09:38:24.772Z,549.90
2022-07-25T09:40:59.291Z,738.72
2022-07-25T09:43:42.756Z,674.60
2022-07-25T09:46:11.969Z,741.05
2022-07-25T09:48:40.912Z,847.58
2022-07-25T09:51:08.133Z,898.83
2022-07-25T09:53:35.375Z,727.60
2022-07-25T09:56:03.145Z,773.35
2022-07-25T09:58:30.367Z,778.38
2022-07-25T10:01:04.588Z,684.58
2022-07-25T10:03:52.001Z,693.40
2022-07-25T10:06:40.901Z,694.22
2022-07-25T10:09:14.799Z,702.05
2022-07-25T10:12:11.574Z,752.63
2022-07-25T10:14:39.405Z,374.23
2022-07-25T10:17:07.403Z,386.90
2022-07-25T10:19:52.921Z,695.10
2022-07-25T10:22:46.493Z,767.63
2022-07-25T10:25:12.295Z,687.35
2022-07-25T10:27:44.953Z,699.03
2022-07-25T10:30:23.845Z,880.35
2022-07-25T10:33:03.617Z,858.20
2022-07-25T10:35:31.281Z,884.47
2022-07-25T10:37:59.956Z,854.80
2022-07-25T10:40:47.918Z,946.58
2022-07-25T10:43:19.510Z,745.20
2022-07-25T10:45:56.579Z,888.30
2022-07-25T10:48:27.011Z,949.08
2022-07-25T10:51:02.825Z,997.20
2022-07-25T10:53:48.485Z,989.83
2022-07-25T10:56:20.727Z,895.00
2022-07-25T10:58:59.994Z,855.03
2022-07-25T11:01:32.378Z,814.60
2022-07-25T11:04:04.923Z,877.58
2022-07-25T11:06:39.689Z,969.33
2022-07-25T11:09:28.734Z,723.75
2022-07-25T11:11:58.216Z,692.38
2022-07-25T11:14:33.223Z,712.65
2022-07-25T11:17:14.455Z,527.75
2022-07-25T11:19:44.070Z,532.20
2022-07-25T11:22:11.969Z,583.10
2022-07-25T11:24:43.345Z,702.10
2022-07-25T11:27:14.695Z,634.92
2022-07-25T11:29:41.912Z,827.88
2022-07-25T11:32:11.048Z,950.92
2022-07-25T11:34:52.721Z,649.65
2022-07-25T11:37:20.803Z,734.88
2022-07-25T11:39:48.626Z,439.75
2022-07-25T11:42:18.040Z,920.83
2022-07-25T11:44:51.323Z,948.67
2022-07-25T11:47:37.075Z,927.78
2022-07-25T11:50:05.216Z,910.00
2022-07-25T11:52:35.643Z,911.20
2022-07-25T11:55:17.333Z,934.63
2022-07-25T11:57:47.229Z,813.92
2022-07-25T12:00:20.665Z,952.17
2022-07-25T12:02:49.640Z,795.72
2022-07-25T12:05:19.337Z,869.22
2022-07-25T12:07:50.738Z,756.25
2022-07-25T12:10:35.614Z,761.13
2022-07-25T12:13:04.277Z,999.90
2022-07-25T12:15:35.318Z,934.20
2022-07-25T12:18:03.153Z,880.53
2022-07-25T12:20:33.469Z,957.50
2022-07-25T12:23:07.098Z,918.47
2022-07-25T12:25:36.896Z,999.90
2022-07-25T12:28:04.533Z,859.15
2022-07-25T12:30:32.683Z,981.85
2022-07-25T12:33:00.713Z,977.72
2022-07-25T12:35:28.144Z,960.40
2022-07-25T12:37:55.633Z,931.78
2022-07-25T12:40:22.998Z,992.83
2022-07-25T12:42:50.744Z,835.97
2022-07-25T12:45:18.177Z,977.90
2022-07-25T12:47:47.378Z,975.95
2022-07-25T12:50:16.343Z,839.70
2022-07-25T12:52:44.342Z,787.28
2022-07-25T12:55:14.198Z,997.85
2022-07-25T12:57:41.973Z,950.00
2022-07-25T13:00:12.858Z,999.83
2022-07-25T13:02:40.217Z,956.90
2022-07-25T13:05:07.711Z,974.17
2022-07-25T13:07:35.608Z,921.80
2022-07-25T13:10:03.693Z,915.08
2022-07-25T13:12:31.317Z,909.42
2022-07-25T13:14:58.638Z,998.58
2022-07-25T13:17:27.729Z,894.95
2022-07-25T13:19:55.705Z,844.47
2022-07-25T13:22:23.370Z,958.22
2022-07-25T13:24:50.871Z,941.55
2022-07-25T13:27:19.598Z,993.30
2022-07-25T13:29:47.336Z,973.85
2022-07-25T13:32:14.599Z,939.22
2022-07-25T13:34:41.803Z,945.45
2022-07-25T13:37:09.275Z,999.90
2022-07-25T13:39:38.290Z,999.90
2022-07-25T13:42:06.191Z,997.72
2022-07-25T13:44:33.444Z,999.90
2022-07-25T13:47:01.311Z,999.90
2022-07-25T13:49:28.681Z,999.90
2022-07-25T13:51:55.890Z,999.90
2022-07-25T13:54:23.101Z,999.90
2022-07-25T13:56:50.341Z,999.90
2022-07-25T13:59:21.486Z,999.90
2022-07-25T14:01:50.419Z,999.90
2022-07-25T14:04:18.030Z,978.65
2022-07-25T14:06:45.567Z,927.83
2022-07-25T14:09:12.822Z,608.17
2022-07-25T14:11:39.971Z,999.90
2022-07-25T14:14:07.125Z,999.90
2022-07-25T14:16:34.602Z,999.90
2022-07-25T14:19:02.184Z,999.90
2022-07-25T14:21:30.628Z,999.90
2022-07-25T14:23:57.793Z,999.90
2022-07-25T14:26:25.805Z,999.90
2022-07-25T14:28:53.288Z,999.90
2022-07-25T14:31:21.289Z,999.90
2022-07-25T14:33:48.662Z,999.90
2022-07-25T14:36:15.881Z,841.83
2022-07-25T14:38:43.622Z,999.90
2022-07-25T14:41:13.233Z,999.90
2022-07-25T14:43:41.718Z,999.90
2022-07-25T14:46:09.837Z,999.90
2022-07-25T14:48:38.182Z,999.90
2022-07-25T14:51:06.131Z,999.90
2022-07-25T14:53:34.794Z,752.53
2022-07-25T14:56:03.969Z,999.90
2022-07-25T14:58:32.103Z,708.78
2022-07-25T15:00:59.473Z,579.80
2022-07-25T15:03:26.724Z,459.67
2022-07-25T15:05:53.953Z,728.17
2022-07-25T15:08:21.230Z,999.90
2022-07-25T15:10:48.598Z,913.42
2022-07-25T15:13:32.441Z,990.95
2022-07-25T15:16:01.103Z,811.30
2022-07-25T15:18:29.068Z,925.88
2022-07-25T15:20:56.328Z,903.10
2022-07-25T15:23:25.014Z,935.13
2022-07-25T15:26:02.936Z,912.40
2022-07-25T15:28:33.833Z,894.65
2022-07-25T15:31:01.560Z,986.75
2022-07-25T15:33:28.927Z,999.90
2022-07-25T15:35:56.380Z,988.90
2022-07-25T15:38:24.034Z,779.85
2022-07-25T15:40:51.616Z,733.42
2022-07-25T15:43:18.812Z,492.00
2022-07-25T15:45:46.608Z,438.52
2022-07-25T15:48:16.059Z,672.15
2022-07-25T15:50:45.773Z,763.00
2022-07-25T15:53:13.714Z,773.53
2022-07-25T15:55:42.450Z,724.28
2022-07-25T15:58:10.831Z,630.75
2022-07-25T16:00:39.723Z,791.30
2022-07-25T16:03:07.220Z,902.38
2022-07-25T16:05:34.777Z,873.72
2022-07-25T16:08:02.167Z,910.25
2022-07-25T16:10:32.478Z,948.55
2022-07-25T16:13:00.803Z,999.90
2022-07-25T16:15:28.445Z,999.90
2022-07-25T16:18:00.213Z,999.90
2022-07-25T16:20:31.160Z,999.90
2022-07-25T16:22:59.142Z,839.33
2022-07-25T16:25:28.008Z,999.90
2022-07-25T16:28:01.690Z,999.90
2022-07-25T16:30:31.041Z,999.90
2022-07-25T16:32:58.454Z,801.53
2022-07-25T16:35:25.683Z,999.90
2022-07-25T16:37:52.885Z,841.78
2022-07-25T16:40:20.110Z,650.33
2022-07-25T16:42:49.531Z,753.97
2022-07-25T16:45:16.777Z,542.20
2022-07-25T16:47:44.363Z,560.97
2022-07-25T16:50:11.527Z,655.45
2022-07-25T16:52:38.858Z,624.95
2022-07-25T16:55:08.672Z,606.95
2022-07-25T16:57:38.074Z,679.67
2022-07-25T17:00:07.866Z,786.80
2022-07-25T17:02:35.483Z,674.63
2022-07-25T17:05:04.253Z,773.53
2022-07-25T17:07:31.993Z,755.63
2022-07-25T17:09:59.154Z,822.85
2022-07-25T17:12:26.342Z,568.78
2022-07-25T17:14:53.753Z,958.55
2022-07-25T17:17:21.118Z,999.90
2022-07-25T17:19:48.403Z,999.90
2022-07-25T17:22:15.795Z,927.30
2022-07-25T17:24:43.072Z,971.80
2022-07-25T17:27:11.327Z,852.45
2022-07-25T17:29:38.618Z,999.90
2022-07-25T17:32:06.905Z,855.22
2022-07-25T17:34:34.478Z,919.72
2022-07-25T17:37:02.885Z,961.58
2022-07-25T17:39:30.860Z,801.95
2022-07-25T17:41:58.153Z,999.90
2022-07-25T17:44:25.580Z,575.88
2022-07-25T17:46:54.180Z,800.85
2022-07-25T17:49:21.859Z,435.02
2022-07-25T17:51:50.139Z,925.70
2022-07-25T17:54:17.687Z,999.90
2022-07-25T17:56:45.457Z,999.90
2022-07-25T17:59:13.690Z,913.63
2022-07-25T18:01:41.088Z,834.88
2022-07-25T18:04:09.202Z,779.65
2022-07-25T18:06:36.676Z,999.90
2022-07-25T18:09:04.138Z,894.08
2022-07-25T18:11:31.436Z,999.90
2022-07-25T18:13:59.471Z,999.90
2022-07-25T18:16:26.867Z,999.90
2022-07-25T18:18:54.273Z,683.03
2022-07-25T18:21:21.474Z,999.90
2022-07-25T18:23:48.780Z,742.22
2022-07-25T18:26:16.381Z,999.90
2022-07-25T18:28:44.403Z,999.90
2022-07-25T18:31:11.846Z,798.38
2022-07-25T18:33:39.174Z,999.90
2022-07-25T18:36:07.792Z,999.90
2022-07-25T18:38:36.086Z,999.90
2022-07-25T18:41:27.494Z,999.90
2022-07-25T18:43:51.838Z,999.90
2022-07-25T18:46:19.889Z,999.90
2022-07-25T18:48:47.827Z,999.90
2022-07-25T18:51:15.244Z,999.90
2022-07-25T18:53:47.377Z,999.90
2022-07-25T18:56:16.037Z,999.90
2022-07-25T18:58:43.772Z,999.90
2022-07-25T19:01:11.206Z,999.90
2022-07-25T19:03:40.040Z,999.90
2022-07-25T19:06:08.999Z,999.90
2022-07-25T19:08:36.851Z,999.90
2022-07-25T19:11:04.273Z,999.90
2022-07-25T19:16:19.537Z,999.90
2022-07-25T19:18:47.349Z,999.90
2022-07-25T19:21:15.221Z,999.90
2022-07-25T19:23:48.203Z,999.90
2022-07-25T19:26:17.813Z,999.90
2022-07-25T19:28:45.156Z,999.90
2022-07-25T19:31:14.433Z,999.90
2022-07-25T19:33:42.022Z,999.90
2022-07-25T19:36:09.623Z,999.90
2022-07-25T19:38:36.846Z,999.90
2022-07-25T19:41:04.187Z,999.90
2022-07-25T19:43:31.446Z,999.90
2022-07-25T19:45:58.748Z,999.90
2022-07-25T19:48:26.028Z,999.90
2022-07-25T19:50:53.301Z,999.90
2022-07-25T19:53:23.127Z,999.90
2022-07-25T19:55:53.982Z,999.90
2022-07-25T19:58:21.187Z,999.90
2022-07-25T20:00:48.483Z,999.90
2022-07-25T20:03:15.805Z,999.90
2022-07-25T20:05:43.060Z,999.90
2022-07-25T20:08:10.274Z,999.90
2022-07-25T20:10:37.653Z,999.90
2022-07-25T20:13:05.094Z,999.90
2022-07-25T20:15:32.782Z,999.90
2022-07-25T20:18:00.026Z,999.90
2022-07-25T20:20:27.285Z,999.90
2022-07-25T20:22:54.693Z,999.90
2022-07-25T20:25:23.282Z,999.90
2022-07-25T20:27:51.045Z,999.90
2022-07-25T20:30:18.758Z,999.90
2022-07-25T20:32:46.257Z,999.90
2022-07-25T20:35:16.773Z,999.90
2022-07-25T20:37:44.606Z,999.90
2022-07-25T20:40:12.125Z,999.90
2022-07-25T20:42:39.382Z,999.90
2022-07-25T20:45:07.674Z,999.90
2022-07-25T20:47:35.090Z,999.90
2022-07-25T20:50:02.283Z,999.90
2022-07-25T20:52:30.224Z,999.90
2022-07-25T20:54:57.456Z,999.90
2022-07-25T20:57:24.740Z,999.90
2022-07-25T20:59:51.928Z,999.90
2022-07-25T21:02:19.228Z,999.90
2022-07-25T21:04:48.403Z,999.90
2022-07-25T21:07:16.651Z,999.90
2022-07-25T21:09:44.109Z,999.90
2022-07-25T21:12:11.444Z,999.90
2022-07-25T21:14:38.672Z,999.90
2022-07-25T21:17:06.002Z,999.90
2022-07-25T21:19:33.411Z,999.90
2022-07-25T21:22:01.998Z,999.90
2022-07-25T21:24:29.258Z,999.90
2022-07-25T21:26:57.730Z,999.90
2022-07-25T21:29:24.977Z,999.90
2022-07-25T21:31:52.232Z,999.90
2022-07-25T21:34:21.518Z,999.90
2022-07-25T21:36:48.699Z,999.90
2022-07-25T21:39:16.317Z,999.90
2022-07-25T21:41:44.737Z,999.90
2022-07-25T21:44:13.929Z,999.90
2022-07-25T21:46:41.106Z,999.90
2022-07-25T21:49:41.422Z,999.90
2022-07-25T21:52:13.553Z,999.90
2022-07-25T21:54:42.554Z,999.90
2022-07-25T21:57:13.402Z,999.90
2022-07-25T21:59:45.899Z,999.90
2022-07-25T22:02:13.584Z,999.90
2022-07-25T22:04:40.774Z,999.90
2022-07-25T22:07:08.020Z,999.90
2022-07-25T22:09:35.420Z,999.90
2022-07-25T22:12:03.110Z,999.90
2022-07-25T22:14:30.359Z,999.90
2022-07-25T22:16:57.696Z,999.90
2022-07-25T22:19:25.143Z,999.90
2022-07-25T22:21:52.378Z,999.90
2022-07-25T22:24:19.615Z,999.90
2022-07-25T22:26:46.900Z,999.90
2022-07-25T22:29:14.285Z,999.90
2022-07-25T22:31:41.552Z,999.90
2022-07-25T22:34:08.801Z,999.90
2022-07-25T22:36:36.092Z,999.90
2022-07-25T22:39:03.624Z,999.90
2022-07-25T22:41:31.033Z,999.90
2022-07-25T22:43:59.955Z,999.90
2022-07-25T22:46:31.643Z,999.90
2022-07-25T22:48:59.702Z,999.90
2022-07-25T22:51:28.802Z,999.90
2022-07-25T22:53:57.578Z,999.90
2022-07-25T22:56:25.711Z,999.90
2022-07-25T22:58:53.310Z,999.90
2022-07-25T23:01:21.548Z,999.90
2022-07-25T23:03:49.942Z,999.90
2022-07-25T23:06:18.789Z,999.90
2022-07-25T23:08:46.987Z,999.90
2022-07-25T23:11:14.338Z,999.90
2022-07-25T23:13:41.548Z,999.90
2022-07-25T23:16:10.411Z,999.90
2022-07-25T23:18:38.379Z,999.90
2022-07-25T23:21:06.291Z,999.90
2022-07-25T23:23:33.685Z,999.90
2022-07-25T23:26:01.000Z,999.90
2022-07-25T23:28:28.537Z,999.90
2022-07-25T23:30:55.802Z,999.90
2022-07-25T23:33:25.692Z,999.90
2022-07-25T23:35:54.265Z,999.90
2022-07-25T23:38:22.534Z,999.90
2022-07-25T23:40:50.022Z,999.90
2022-07-25T23:43:30.860Z,999.90
2022-07-25T23:46:05.373Z,999.90
2022-07-25T23:48:34.887Z,999.90
2022-07-25T23:51:02.073Z,999.90
2022-07-25T23:53:29.315Z,999.90
2022-07-25T23:55:56.533Z,469.08
2022-07-25T23:58:23.718Z,388.45
